Time;durP1;ratioP1;P1;durP2;ratioP2;P2;SDS_P1;SDS_P2;PMS_P1;PMS_P2;Temp;Humidity;BMP_temperature;BMP_pressure;BME280_temperature;BME280_humidity;BME280_pressure;Samples;Min_cycle;Max_cycle;Signal;HPM_P1;HPM_P2
2022/04/02 00:01:12;;;;;;;10.00;5.60;;;;;;;-0.26;95.35;99382.82;1731813;81;25993;-76
2022/04/02 00:03:38;;;;;;;8.65;5.17;;;;;;;-0.20;95.25;99394.90;1736635;81;26630;-76
2022/04/02 00:06:05;;;;;;;12.35;5.42;;;;;;;-0.21;94.84;99389.28;1734620;81;26315;-75
2022/04/02 00:08:32;;;;;;;8.80;5.87;;;;;;;-0.21;94.90;99385.34;1752457;81;25828;-76
2022/04/02 00:10:58;;;;;;;11.60;4.85;;;;;;;-0.21;95.11;99384.02;1738827;81;28375;-76
2022/04/02 00:13:24;;;;;;;7.80;5.53;;;;;;;-0.20;95.05;99379.59;1737697;81;25855;-75
2022/04/02 00:15:51;;;;;;;9.38;6.17;;;;;;;-0.20;95.17;99379.59;1752017;81;25730;-76
2022/04/02 00:18:17;;;;;;;10.45;5.50;;;;;;;-0.20;94.91;99379.11;1738474;81;26567;-76
2022/04/02 00:20:44;;;;;;;10.85;5.87;;;;;;;-0.24;95.20;99396.66;1744682;81;26585;-76
2022/04/02 00:25:54;;;;;;;12.20;6.22;;;;;;;-0.22;95.24;99370.54;1742061;81;26082;-76
2022/04/02 00:28:21;;;;;;;10.48;5.50;;;;;;;-0.24;95.42;99358.02;1738062;81;26382;-76
2022/04/02 00:30:47;;;;;;;10.43;5.70;;;;;;;-0.24;94.94;99376.44;1752400;81;25885;-76
2022/04/02 00:33:13;;;;;;;10.53;5.67;;;;;;;-0.24;94.95;99368.55;1738335;81;25848;-76
2022/04/02 00:35:39;;;;;;;9.03;5.67;;;;;;;-0.24;95.10;99370.34;1738027;81;27515;-76
2022/04/02 00:38:07;;;;;;;8.48;5.50;;;;;;;-0.25;95.50;99373.94;1737612;81;25903;-76
2022/04/02 00:40:34;;;;;;;10.98;5.58;;;;;;;-0.27;95.02;99375.41;1734842;81;25817;-76
2022/04/02 00:43:00;;;;;;;6.17;4.78;;;;;;;-0.26;95.00;99368.34;1747786;81;26350;-76
2022/04/02 00:45:27;;;;;;;8.48;4.45;;;;;;;-0.27;95.22;99373.25;1736528;81;26231;-75
2022/04/02 00:47:53;;;;;;;8.05;5.12;;;;;;;-0.28;95.60;99371.10;1744855;81;27485;-76
2022/04/02 00:50:20;;;;;;;9.98;5.10;;;;;;;-0.29;95.21;99371.27;1749272;81;25889;-76
2022/04/02 00:52:46;;;;;;;8.33;5.30;;;;;;;-0.29;95.18;99379.98;1736421;81;25799;-76
2022/04/02 00:55:15;;;;;;;8.10;5.45;;;;;;;-0.29;95.32;99374.73;1740071;81;26234;-76
2022/04/02 00:57:41;;;;;;;7.85;5.17;;;;;;;-0.29;95.12;99372.58;1752679;81;25754;-76
2022/04/02 01:00:09;;;;;;;9.68;5.50;;;;;;;-0.31;95.11;99375.36;1752466;81;28361;-76
2022/04/02 01:02:36;;;;;;;8.55;5.53;;;;;;;-0.31;95.02;99378.48;1746266;81;26436;-76
2022/04/02 01:05:04;;;;;;;8.65;5.35;;;;;;;-0.31;95.20;99371.90;1747092;81;25848;-76
2022/04/02 01:07:32;;;;;;;10.85;5.65;;;;;;;-0.32;95.19;99371.06;1742358;81;25434;-76
2022/04/02 01:09:59;;;;;;;8.10;5.95;;;;;;;-0.32;95.20;99371.06;1730638;81;25788;-76
2022/04/02 01:12:26;;;;;;;6.70;4.70;;;;;;;-0.33;94.90;99369.91;1735982;81;27529;-76
2022/04/02 01:14:52;;;;;;;7.83;5.60;;;;;;;-0.34;95.04;99363.00;1743839;81;25832;-76
2022/04/02 01:17:22;;;;;;;8.33;4.72;;;;;;;-0.35;95.00;99372.69;1742964;81;26448;-76
2022/04/02 01:19:50;;;;;;;7.77;4.83;;;;;;;-0.36;95.33;99371.02;1721732;82;26460;-76
2022/04/02 01:22:18;;;;;;;7.20;3.95;;;;;;;-0.37;95.55;99361.49;1723419;81;25820;-76
2022/04/02 01:24:49;;;;;;;5.90;4.22;;;;;;;-0.39;95.29;99358.19;1740050;81;27460;-76
2022/04/02 01:27:16;;;;;;;8.80;5.42;;;;;;;-0.40;95.28;99363.09;1722213;81;25308;-76
2022/04/02 01:29:44;;;;;;;6.72;4.08;;;;;;;-0.40;95.33;99360.94;1726122;82;26506;-76
2022/04/02 01:32:12;;;;;;;7.97;4.62;;;;;;;-0.41;95.46;99369.34;1730523;82;25768;-76
2022/04/02 01:34:39;;;;;;;9.60;4.80;;;;;;;-0.42;95.63;99358.95;1716979;82;25869;-76
2022/04/02 01:37:17;;;;;;;7.65;4.47;;;;;;;-0.43;95.23;99365.20;1719565;82;27427;-76
2022/04/02 01:39:46;;;;;;;9.38;4.53;;;;;;;-0.43;95.62;99366.52;1742512;82;25912;-76
2022/04/02 01:42:14;;;;;;;8.28;5.03;;;;;;;-0.44;95.04;99362.21;1734320;82;25893;-76
2022/04/02 01:44:49;;;;;;;7.50;4.15;;;;;;;-0.45;94.97;99364.52;1725933;81;26560;-76
2022/04/02 01:47:11;;;;;;;9.25;4.97;;;;;;;-0.45;95.37;99372.41;1723403;82;25991;-76
2022/04/02 01:49:37;;;;;;;6.40;4.50;;;;;;;-0.47;94.98;99367.27;1722072;81;28238;-76
2022/04/02 01:52:05;;;;;;;6.85;4.60;;;;;;;-0.47;94.84;99367.78;1724870;81;25893;-76
2022/04/02 01:54:31;;;;;;;7.85;4.80;;;;;;;-0.47;94.24;99375.67;1719710;82;25522;-76
2022/04/02 01:57:03;;;;;;;6.30;3.90;;;;;;;-0.53;94.71;99364.40;1717737;82;26485;-76
2022/04/02 01:59:30;;;;;;;9.43;4.50;;;;;;;-0.53;94.71;99364.40;1724904;81;25743;-76
2022/04/02 02:01:56;;;;;;;5.83;4.20;;;;;;;-0.50;94.48;99375.47;1735176;81;28044;-76
2022/04/02 02:04:22;;;;;;;9.50;4.17;;;;;;;-0.51;94.41;99381.70;1724823;81;26594;-76
2022/04/02 02:06:50;;;;;;;5.75;4.15;;;;;;;-0.52;94.36;99370.84;1723133;82;25893;-76
2022/04/02 02:09:18;;;;;;;5.40;4.10;;;;;;;-0.52;94.30;99375.28;1718808;82;26291;-76
2022/04/02 02:11:56;;;;;;;5.90;4.08;;;;;;;-0.53;94.34;99378.38;1705934;82;26135;-76
2022/04/02 02:14:24;;;;;;;7.33;4.50;;;;;;;-0.55;93.97;99372.45;1716016;82;27479;-76
2022/04/02 02:16:58;;;;;;;6.53;4.40;;;;;;;-0.55;93.86;99375.08;1716299;82;25819;-76
2022/04/02 02:19:25;;;;;;;4.72;3.50;;;;;;;-0.57;94.02;99374.88;1731278;82;25810;-76
2022/04/02 02:21:51;;;;;;;9.70;5.08;;;;;;;-0.57;93.86;99375.70;1719703;82;25785;-76
2022/04/02 02:24:18;;;;;;;9.05;4.60;;;;;;;-0.57;94.03;99371.77;1733991;81;25346;-76
2022/04/02 02:26:44;;;;;;;7.22;4.72;;;;;;;-0.58;94.20;99374.07;1723096;81;28125;-76
2022/04/02 02:29:11;;;;;;;10.45;5.17;;;;;;;-0.58;93.93;99370.61;1722708;82;25794;-76
2022/04/02 02:31:38;;;;;;;9.08;4.37;;;;;;;-0.58;93.83;99371.92;1721624;81;25831;-76
2022/04/02 02:36:54;;;;;;;16.37;6.97;;;;;;;-0.61;93.52;99370.88;1734834;81;25854;-76
2022/04/02 02:39:21;;;;;;;5.20;3.70;;;;;;;-0.62;93.31;99381.88;1732058;81;28442;-76
2022/04/02 02:41:49;;;;;;;5.97;3.80;;;;;;;-0.62;93.38;99382.39;1725076;82;26091;-76
2022/04/02 02:44:23;;;;;;;5.12;3.40;;;;;;;-0.65;93.27;99373.47;1718698;82;25839;-76
2022/04/02 02:46:51;;;;;;;5.33;3.52;;;;;;;-0.69;93.03;99382.14;1705772;82;26301;-76
2022/04/02 02:49:23;;;;;;;6.28;3.37;;;;;;;-0.69;92.76;99379.99;1733018;81;25802;-76
2022/04/02 02:51:50;;;;;;;10.43;4.42;;;;;;;-0.72;92.81;99381.11;1721336;82;27518;-76
2022/04/02 02:54:18;;;;;;;7.97;3.75;;;;;;;-0.75;92.63;99377.95;1731448;82;25903;-76
2022/04/02 02:56:45;;;;;;;6.00;3.55;;;;;;;-0.76;92.80;99379.74;1718453;82;25861;-76
2022/04/02 02:59:12;;;;;;;5.60;4.17;;;;;;;-0.77;92.69;99381.21;1732841;82;26484;-76
2022/04/02 03:01:38;;;;;;;5.58;3.08;;;;;;;-0.81;92.80;99378.86;1728622;82;25820;-76
2022/04/02 03:04:05;;;;;;;6.45;3.40;;;;;;;-0.82;93.01;99390.84;1717828;82;27425;-76
2022/04/02 03:06:33;;;;;;;7.10;4.42;;;;;;;-0.84;93.06;99391.48;1711097;82;25940;-76
2022/04/02 03:08:59;;;;;;;4.28;2.85;;;;;;;-0.85;92.91;99385.86;1721850;81;25832;-76
2022/04/02 03:11:26;;;;;;;5.00;3.60;;;;;;;-0.86;93.05;99380.27;1730917;82;26480;-76
2022/04/02 03:13:53;;;;;;;8.53;3.42;;;;;;;-0.88;92.93;99380.91;1728077;82;26553;-76
2022/04/02 03:16:19;;;;;;;7.92;3.67;;;;;;;-0.88;92.89;99380.91;1721659;82;27468;-76
2022/04/02 03:19:02;;;;;;;4.33;3.15;;;;;;;-0.89;92.92;99377.92;1722366;82;26563;-76
2022/04/02 03:21:28;;;;;;;3.72;3.17;;;;;;;-0.93;93.14;99386.59;1734503;82;25996;-76
2022/04/02 03:23:56;;;;;;;6.90;3.52;;;;;;;-0.96;93.53;99381.61;1725268;81;26424;-76
2022/04/02 03:26:22;;;;;;;8.25;4.20;;;;;;;-0.96;93.53;99381.61;1726476;81;25948;-76
2022/04/02 03:28:49;;;;;;;5.37;3.42;;;;;;;-0.98;93.24;99375.67;1734069;81;27437;-75
2022/04/02 03:31:17;;;;;;;5.87;3.67;;;;;;;-0.98;93.24;99375.67;1754595;81;25729;-75
2022/04/02 03:33:44;;;;;;;6.80;4.08;;;;;;;-0.98;92.95;99386.18;1766436;81;25842;-76
2022/04/02 03:36:12;;;;;;;4.92;2.85;;;;;;;-0.99;93.22;99385.02;1738949;81;26401;-76
2022/04/02 03:38:41;;;;;;;8.03;3.67;;;;;;;-0.99;93.22;99385.02;1725539;81;25756;-76
2022/04/02 03:41:09;;;;;;;5.42;4.33;;;;;;;-1.04;93.10;99374.94;1722495;81;27540;-76
2022/04/02 03:43:35;;;;;;;6.67;2.80;;;;;;;-1.01;93.14;99389.59;1722602;81;25905;-76
2022/04/02 03:48:47;;;;;;;6.70;3.75;;;;;;;-1.07;93.24;99387.55;1705988;82;25883;-76
2022/04/02 03:51:14;;;;;;;4.50;3.42;;;;;;;-1.04;93.14;99389.87;1721593;82;25909;-76
2022/04/02 03:53:41;;;;;;;7.45;3.92;;;;;;;-1.06;92.82;99387.39;1720761;81;27514;-76
2022/04/02 03:56:10;;;;;;;5.42;3.75;;;;;;;-1.05;92.75;99390.86;1720133;82;26630;-75
2022/04/02 03:58:38;;;;;;;6.25;3.58;;;;;;;-1.10;92.75;99382.56;1735221;82;25845;-76
2022/04/02 04:01:05;;;;;;;4.70;3.33;;;;;;;-1.07;92.72;99393.61;1721632;81;25866;-76
2022/04/02 04:03:33;;;;;;;5.50;3.47;;;;;;;-1.07;92.67;99402.80;1724447;81;26053;-75
2022/04/02 04:06:01;;;;;;;6.08;3.72;;;;;;;-1.09;92.65;99394.74;1735587;81;27520;-76
2022/04/02 04:08:28;;;;;;;4.92;3.52;;;;;;;-1.15;92.42;99381.67;1728558;82;25960;-76
2022/04/02 04:10:55;;;;;;;5.85;3.65;;;;;;;-1.07;92.35;99404.63;1706323;82;25855;-76
2022/04/02 04:13:21;;;;;;;4.17;2.85;;;;;;;-1.09;92.30;99400.80;1709183;82;25898;-76
2022/04/02 04:15:49;;;;;;;5.05;3.22;;;;;;;-1.08;92.28;99406.89;1723143;82;25323;-75
2022/04/02 04:18:16;;;;;;;4.83;3.70;;;;;;;-1.07;92.28;99405.94;1735777;81;27465;-76
2022/04/02 04:20:43;;;;;;;4.90;3.45;;;;;;;-1.08;91.99;99398.53;1749517;81;26012;-76
2022/04/02 04:23:12;;;;;;;7.72;3.35;;;;;;;-1.08;92.38;99402.47;1748042;81;26450;-76
2022/04/02 04:25:39;;;;;;;5.60;3.92;;;;;;;-1.09;92.16;99405.25;1751933;81;26161;-76
2022/04/02 04:28:07;;;;;;;4.75;3.33;;;;;;;-1.11;92.39;99402.74;1727507;81;25882;-76
2022/04/02 04:30:34;;;;;;;6.20;3.83;;;;;;;-1.10;92.54;99407.52;1750743;81;27620;-76
2022/04/02 04:33:00;;;;;;;5.17;3.12;;;;;;;-1.10;92.17;99408.36;1751853;81;26529;-76
2022/04/02 04:35:26;;;;;;;7.37;3.75;;;;;;;-1.11;92.30;99413.25;1752278;81;25798;-75
2022/04/02 04:37:52;;;;;;;4.28;3.50;;;;;;;-1.09;92.11;99419.70;1752211;81;26296;-76
2022/04/02 04:40:21;;;;;;;3.98;3.00;;;;;;;-1.08;92.28;99417.41;1750258;81;25824;-76
2022/04/02 04:42:48;;;;;;;4.08;3.27;;;;;;;-1.08;92.28;99420.03;1752164;81;27440;-76
2022/04/02 04:45:16;;;;;;;5.00;3.25;;;;;;;-1.08;92.37;99422.66;1752340;81;25859;-76
2022/04/02 04:47:45;;;;;;;7.00;4.22;;;;;;;-1.09;92.25;99421.02;1752300;81;25922;-76
2022/04/02 04:50:12;;;;;;;5.50;3.65;;;;;;;-1.07;92.39;99426.45;1727707;81;25990;-76
2022/04/02 04:52:40;;;;;;;5.00;3.67;;;;;;;-1.05;92.38;99430.27;1752055;81;25773;-76
2022/04/02 04:55:07;;;;;;;5.72;3.80;;;;;;;-1.03;92.24;99425.70;1752612;81;27524;-76
2022/04/02 04:57:34;;;;;;;6.80;3.83;;;;;;;-1.06;92.21;99421.55;1752451;81;25783;-76
2022/04/02 05:00:05;;;;;;;7.62;3.02;;;;;;;-0.98;92.12;99436.59;1747657;81;25726;-76
2022/04/02 05:02:34;;;;;;;4.58;3.42;;;;;;;-0.99;91.94;99429.70;1750610;81;25854;-76
2022/04/02 05:05:02;;;;;;;5.47;3.67;;;;;;;-1.00;92.13;99434.12;1727293;81;26479;-76
2022/04/02 05:07:29;;;;;;;6.30;3.37;;;;;;;-0.99;92.12;99441.52;1752364;81;28222;-76
2022/04/02 05:09:57;;;;;;;6.72;3.22;;;;;;;-0.97;92.05;99444.36;1752135;81;25882;-76
2022/04/02 05:12:24;;;;;;;5.20;3.30;;;;;;;-0.95;91.86;99440.27;1752295;81;25790;-76
2022/04/02 05:14:51;;;;;;;5.37;3.12;;;;;;;-0.95;91.91;99443.73;1752742;81;25794;-75
2022/04/02 05:17:19;;;;;;;5.40;2.95;;;;;;;-0.95;91.84;99444.20;1750400;81;26486;-76
2022/04/02 05:19:48;;;;;;;5.97;3.58;;;;;;;-0.94;91.78;99447.20;1752317;81;28420;-76
2022/04/02 05:22:15;;;;;;;7.20;3.72;;;;;;;-0.91;91.64;99447.73;1752082;81;25744;-76
2022/04/02 05:24:46;;;;;;;6.60;4.12;;;;;;;-0.90;91.47;99445.42;1726843;82;25797;-76
2022/04/02 05:27:13;;;;;;;4.87;3.25;;;;;;;-0.89;91.55;99441.01;1718324;82;26380;-76
2022/04/02 05:29:39;;;;;;;6.17;3.00;;;;;;;-0.90;91.52;99450.69;1725502;81;25778;-76
2022/04/02 05:32:07;;;;;;;7.25;4.53;;;;;;;-0.91;91.10;99447.73;1766169;79;28254;-76
2022/04/02 05:34:33;;;;;;;5.25;3.72;;;;;;;-0.92;90.86;99441.31;1774203;79;25917;-76
2022/04/02 05:37:00;;;;;;;5.30;3.37;;;;;;;-0.97;91.11;99443.05;1760495;80;25923;-76
2022/04/02 05:39:26;;;;;;;10.75;3.47;;;;;;;-0.87;91.03;99453.05;1781249;79;25537;-76
2022/04/02 05:41:53;;;;;;;4.85;3.70;;;;;;;-0.82;90.93;99455.25;1778464;78;26448;-76
2022/04/02 05:44:19;;;;;;;6.35;3.45;;;;;;;-0.79;90.80;99450.52;1756688;79;27459;-76
2022/04/02 05:46:46;;;;;;;5.00;3.55;;;;;;;-0.72;90.89;99448.16;1779956;80;26169;-75
2022/04/02 05:49:12;;;;;;;4.75;3.50;;;;;;;-0.69;90.64;99450.50;1773212;79;25832;-76
2022/04/02 05:51:38;;;;;;;4.85;3.45;;;;;;;-0.65;90.42;99457.61;1775655;79;25785;-76
2022/04/02 05:54:05;;;;;;;4.62;2.62;;;;;;;-0.62;90.35;99458.66;1770344;80;26438;-76
2022/04/02 05:56:33;;;;;;;3.98;3.33;;;;;;;-0.61;89.98;99453.72;1769277;80;27430;-76
2022/04/02 05:58:59;;;;;;;7.35;3.75;;;;;;;-0.61;89.74;99454.55;1781313;80;25859;-76
2022/04/02 06:01:26;;;;;;;4.95;2.98;;;;;;;-0.57;89.82;99462.98;1786986;80;25820;-76
2022/04/02 06:03:53;;;;;;;8.10;4.05;;;;;;;-0.51;89.78;99463.23;1772976;79;26360;-76
2022/04/02 06:06:19;;;;;;;4.50;3.22;;;;;;;-0.49;89.03;99459.16;1781688;79;25761;-76
2022/04/02 06:08:45;;;;;;;4.85;3.22;;;;;;;-0.42;89.29;99462.38;1767654;80;28326;-75
2022/04/02 06:11:11;;;;;;;5.40;3.62;;;;;;;-0.38;89.08;99469.47;1765182;80;25799;-76
2022/04/02 06:13:37;;;;;;;5.75;3.60;;;;;;;-0.40;88.73;99455.64;1767420;80;26481;-76
2022/04/02 06:16:06;;;;;;;5.83;3.65;;;;;;;-0.32;89.06;99465.78;1768383;80;25941;-76
2022/04/02 06:18:32;;;;;;;7.15;4.10;;;;;;;-0.25;88.92;99473.44;1780790;79;25818;-75
2022/04/02 06:21:02;;;;;;;5.25;3.80;;;;;;;-0.23;88.62;99471.48;1788542;78;28284;-76
2022/04/02 06:23:26;;;;;;;6.12;3.75;;;;;;;-0.21;88.01;99470.02;1772960;80;26473;-76
2022/04/02 06:25:53;;;;;;;4.97;3.15;;;;;;;-0.22;88.11;99470.53;1762373;80;25840;-76
2022/04/02 06:28:19;;;;;;;5.78;3.83;;;;;;;-0.18;88.06;99473.69;1788071;80;26269;-76
2022/04/02 06:30:46;;;;;;;5.28;3.50;;;;;;;-0.12;88.03;99481.83;1788757;79;25834;-76
2022/04/02 06:33:12;;;;;;;6.10;3.42;;;;;;;-0.08;87.61;99483.19;1772637;78;27025;-75
2022/04/02 06:35:39;;;;;;;4.47;3.35;;;;;;;-0.04;87.68;99491.61;1771579;80;26030;-76
2022/04/02 06:38:05;;;;;;;4.53;2.80;;;;;;;0.03;87.39;99492.69;1777881;78;25825;-76
2022/04/02 06:40:32;;;;;;;5.83;4.08;;;;;;;0.07;87.01;99494.53;1773362;79;25815;-76
2022/04/02 06:42:59;;;;;;;6.65;3.70;;;;;;;0.06;86.64;99498.99;1780463;80;26155;-76
2022/04/02 06:45:27;;;;;;;6.45;3.15;;;;;;;0.04;86.43;99493.05;1774070;80;28243;-75
2022/04/02 06:47:53;;;;;;;5.58;3.60;;;;;;;-0.01;85.95;99496.11;1788277;79;25803;-75
2022/04/02 06:50:19;;;;;;;5.50;3.87;;;;;;;-0.05;86.13;99499.19;1787029;80;26416;-75
2022/04/02 06:52:46;;;;;;;9.23;4.28;;;;;;;-0.07;86.00;99498.02;1767547;80;25971;-76
2022/04/02 06:55:15;;;;;;;8.93;5.55;;;;;;;-0.06;86.46;99500.98;1777058;80;26427;-76
2022/04/02 06:57:44;;;;;;;5.28;3.65;;;;;;;-0.01;86.39;99500.06;1782729;78;28343;-76
2022/04/02 07:00:11;;;;;;;6.37;4.03;;;;;;;0.03;86.00;99499.75;1801322;78;25916;-76
2022/04/02 07:02:38;;;;;;;5.35;3.72;;;;;;;0.03;85.60;99503.70;1818439;78;25801;-76
2022/04/02 07:05:06;;;;;;;6.30;4.47;;;;;;;0.06;85.58;99504.73;1819227;78;26305;-75
2022/04/02 07:07:32;;;;;;;6.83;3.92;;;;;;;0.11;86.05;99499.88;1818696;78;25792;-76
2022/04/02 07:09:59;;;;;;;11.25;4.00;;;;;;;0.18;85.89;99499.59;1818966;78;27463;-76
2022/04/02 07:12:25;;;;;;;5.12;4.10;;;;;;;0.23;85.80;99505.27;1818562;78;25821;-76
2022/04/02 07:14:51;;;;;;;5.28;3.25;;;;;;;0.25;85.89;99509.41;1818723;78;25272;-76
2022/04/02 07:17:17;;;;;;;6.40;4.22;;;;;;;0.25;84.58;99516.47;1805008;78;25718;-76
2022/04/02 07:19:45;;;;;;;6.95;3.90;;;;;;;0.19;84.16;99508.69;1771950;80;25993;-76
2022/04/02 07:22:14;;;;;;;6.95;3.98;;;;;;;0.16;84.28;99510.29;1768891;80;27521;-76
2022/04/02 07:24:41;;;;;;;6.28;4.20;;;;;;;0.16;84.32;99510.77;1768648;80;25928;-76
2022/04/02 07:27:08;;;;;;;6.35;3.47;;;;;;;0.21;84.98;99509.85;1769309;80;26074;-76
2022/04/02 07:29:35;;;;;;;4.95;3.55;;;;;;;0.26;84.21;99507.10;1769025;80;26261;-76
2022/04/02 07:32:02;;;;;;;7.03;4.40;;;;;;;0.28;84.25;99513.05;1768934;80;25828;-76
2022/04/02 07:34:29;;;;;;;4.92;4.00;;;;;;;0.30;84.30;99512.92;1768899;80;27545;-76
2022/04/02 07:37:43;;;;;;;6.92;3.58;;;;;;;0.34;84.42;99506.37;1768766;80;25956;-76
2022/04/02 07:40:23;;;;;;;6.95;3.58;;;;;;;0.37;84.37;99511.33;1768805;80;25735;-76
2022/04/02 07:43:48;;;;;;;8.75;3.92;;;;;;;0.36;83.38;99507.89;1768512;80;25898;-76
2022/04/02 07:46:21;;;;;;;5.45;3.47;;;;;;;0.35;83.73;99519.39;1769014;80;25731;-77
2022/04/02 07:48:49;;;;;;;5.50;3.37;;;;;;;0.31;83.66;99518.03;1769179;80;27435;-75
2022/04/02 07:51:18;;;;;;;7.22;4.45;;;;;;;0.39;83.91;99521.23;1775822;80;25838;-76
2022/04/02 07:53:51;;;;;;;5.47;3.85;;;;;;;0.41;83.44;99522.73;1789330;78;25309;-76
2022/04/02 07:56:31;;;;;;;6.70;3.85;;;;;;;0.39;82.77;99519.91;1766058;79;26168;-77
2022/04/02 07:59:07;;;;;;;6.42;3.70;;;;;;;0.41;83.32;99518.79;1773389;80;25924;-77
2022/04/02 08:01:34;;;;;;;5.80;3.67;;;;;;;0.49;83.15;99522.82;1786585;79;28101;-76
2022/04/02 08:04:04;;;;;;;8.68;4.55;;;;;;;0.58;83.33;99522.41;1764176;80;26072;-76
2022/04/02 08:06:37;;;;;;;5.03;3.65;;;;;;;0.68;83.57;99524.00;1786097;78;25789;-76
2022/04/02 08:09:03;;;;;;;6.47;4.40;;;;;;;0.84;83.76;99523.33;1793785;78;25906;-76
2022/04/02 08:11:32;;;;;;;6.33;4.08;;;;;;;0.94;83.09;99525.90;1809110;78;25765;-76
2022/04/02 08:13:59;;;;;;;6.30;3.35;;;;;;;0.98;82.77;99518.86;1819469;78;27419;-76
2022/04/02 08:16:27;;;;;;;8.50;4.30;;;;;;;0.99;82.08;99527.57;1819216;78;25456;-76
2022/04/02 08:18:56;;;;;;;9.60;4.53;;;;;;;0.95;82.02;99528.37;1819734;78;25824;-76
2022/04/02 08:21:23;;;;;;;7.12;4.17;;;;;;;0.95;82.23;99529.70;1821432;78;26172;-76
2022/04/02 08:23:49;;;;;;;7.53;4.62;;;;;;;0.95;82.03;99519.15;1821297;78;26206;-76
2022/04/02 08:26:52;;;;;;;9.78;4.80;;;;;;;0.95;82.15;99525.73;1821612;78;27629;-76
2022/04/02 08:29:46;;;;;;;6.58;4.37;;;;;;;1.00;82.43;99531.88;1821827;78;26471;-75
2022/04/02 08:32:23;;;;;;;7.37;4.80;;;;;;;1.02;82.21;99532.07;1791847;78;25847;-75
2022/04/02 08:35:07;;;;;;;7.10;4.53;;;;;;;1.08;82.54;99526.66;1757028;81;26103;-75
2022/04/02 08:37:53;;;;;;;6.47;4.17;;;;;;;1.10;82.19;99529.49;1756186;81;25780;-75
2022/04/02 08:40:45;;;;;;;6.58;3.95;;;;;;;1.11;81.97;99534.28;1755790;81;27592;-75
2022/04/02 08:43:41;;;;;;;7.30;4.55;;;;;;;1.06;82.24;99533.42;1755895;81;25939;-75
2022/04/02 08:46:55;;;;;;;6.60;4.15;;;;;;;1.06;82.38;99532.59;1755684;80;25840;-75
2022/04/02 08:49:27;;;;;;;8.65;4.85;;;;;;;1.15;83.23;99543.06;1771173;80;25821;-79
2022/04/02 08:52:22;;;;;;;7.47;4.30;;;;;;;1.21;82.41;99536.33;1770229;80;26559;-77
2022/04/02 08:55:09;;;;;;;6.37;4.53;;;;;;;1.28;82.60;99539.51;1776843;79;27458;-80
2022/04/02 08:57:57;;;;;;;6.22;4.37;;;;;;;1.36;82.54;99540.91;1777954;79;25782;-76
2022/04/02 09:00:26;;;;;;;5.67;4.08;;;;;;;1.48;82.32;99539.66;1771829;80;25771;-76
2022/04/02 09:03:36;;;;;;;7.92;5.08;;;;;;;1.49;81.66;99547.94;1775680;80;26221;-77
2022/04/02 09:06:36;;;;;;;7.97;4.72;;;;;;;1.51;81.82;99554.37;1774176;80;25834;-77
2022/04/02 09:09:08;;;;;;;8.68;4.78;;;;;;;1.54;81.90;99543.00;1770069;80;27405;-77
2022/04/02 09:12:14;;;;;;;7.50;4.97;;;;;;;1.66;82.12;99544.91;1762682;79;25893;-78
2022/04/02 09:14:55;;;;;;;5.65;4.25;;;;;;;1.72;81.87;99550.03;1789094;79;26181;-77
2022/04/02 09:17:53;;;;;;;7.83;5.37;;;;;;;1.75;81.99;99547.09;1772796;80;35361;-77
2022/04/02 09:20:37;;;;;;;7.55;4.90;;;;;;;1.74;81.92;99551.54;1777371;79;25970;-77
2022/04/02 09:23:11;;;;;;;12.80;5.60;;;;;;;1.82;82.41;99547.62;1767281;79;27536;-78
2022/04/02 09:26:00;;;;;;;8.38;5.53;;;;;;;1.93;82.36;99550.00;1777931;79;26521;-78
2022/04/02 09:28:34;;;;;;;6.50;4.47;;;;;;;2.05;82.33;99550.56;1777361;79;25758;-77
2022/04/02 09:31:57;;;;;;;12.13;5.55;;;;;;;2.13;82.15;99550.11;1788481;79;25754;-77
2022/04/02 09:34:51;;;;;;;10.50;6.12;;;;;;;2.18;82.07;99550.44;1782301;80;25859;-77
2022/04/02 09:37:38;;;;;;;9.40;5.53;;;;;;;2.19;81.63;99555.23;1784912;80;27437;-78
2022/04/02 09:40:11;;;;;;;8.73;5.83;;;;;;;2.17;81.56;99551.92;1774089;79;25899;-78
2022/04/02 09:42:51;;;;;;;7.10;5.00;;;;;;;2.20;81.30;99555.58;1788751;78;26542;-78
2022/04/02 09:45:23;;;;;;;9.60;5.43;;;;;;;2.23;81.53;99561.37;1775483;78;25732;-77
2022/04/02 09:48:27;;;;;;;9.70;5.50;;;;;;;2.31;81.67;99555.27;1743734;80;25987;-77
2022/04/02 09:50:56;;;;;;;9.18;5.45;;;;;;;2.40;81.29;99556.12;1709415;82;28253;-78
2022/04/02 09:53:29;;;;;;;8.78;5.47;;;;;;;2.51;81.13;99554.52;1722399;82;25811;-77
2022/04/02 09:56:15;;;;;;;8.85;5.12;;;;;;;2.60;79.79;99553.07;1710971;82;25905;-78
2022/04/02 09:59:04;;;;;;;8.15;5.28;;;;;;;2.68;79.79;99550.92;1727503;82;25756;-78
2022/04/02 10:01:38;;;;;;;10.03;5.78;;;;;;;2.85;79.87;99551.28;1711130;82;26409;-78
2022/04/02 10:04:19;;;;;;;9.23;5.40;;;;;;;3.04;78.38;99553.63;1724705;82;28251;-77
2022/04/02 10:06:49;;;;;;;7.22;4.62;;;;;;;3.16;74.89;99552.81;1717842;82;25940;-77
2022/04/02 10:09:22;;;;;;;7.30;4.80;;;;;;;3.21;72.24;99552.64;1715082;82;25799;-77
2022/04/02 10:12:01;;;;;;;7.50;4.90;;;;;;;3.25;72.93;99549.19;1714822;82;26322;-77
2022/04/02 10:14:34;;;;;;;7.35;4.50;;;;;;;3.37;71.89;99551.33;1710208;82;25894;-77
2022/04/02 10:17:08;;;;;;;7.42;4.53;;;;;;;3.50;70.09;99547.69;1713511;82;28270;-77
2022/04/02 10:19:38;;;;;;;7.00;5.05;;;;;;;3.63;71.73;99545.84;1716704;82;25802;-77
2022/04/02 10:22:06;;;;;;;;;;;;;;;3.80;72.08;99546.14;1729900;82;26322;-77
2022/04/02 10:24:53;;;;;;;6.97;4.67;;;;;;;3.93;71.20;99548.25;1717228;82;25449;-77
2022/04/02 10:27:32;;;;;;;6.20;4.12;;;;;;;3.96;69.83;99555.88;1727982;81;25740;-76
2022/04/02 10:30:09;;;;;;;8.53;5.10;;;;;;;3.84;67.24;99557.55;1712178;81;28095;-77
2022/04/02 10:33:26;;;;;;;7.90;4.67;;;;;;;3.79;67.72;99557.23;1716009;82;25399;-77
2022/04/02 10:35:31;;;;;;;5.75;4.47;;;;;;;3.84;68.34;99554.91;1713954;81;25799;-78
2022/04/02 10:38:29;;;;;;;8.10;4.95;;;;;;;3.90;68.26;99559.52;1712541;82;25836;-77
2022/04/02 10:40:56;;;;;;;8.90;4.65;;;;;;;3.96;68.51;99554.03;1717094;81;26448;-77
2022/04/02 10:43:30;;;;;;;6.28;4.67;;;;;;;4.00;68.16;99550.04;1709258;82;27486;-77
2022/04/02 10:45:59;;;;;;;10.40;4.47;;;;;;;4.04;66.93;99554.03;1713307;82;25783;-77
2022/04/02 10:48:40;;;;;;;8.53;4.90;;;;;;;4.04;67.17;99544.75;1705974;82;25292;-77
2022/04/02 10:51:08;;;;;;;;;;;;;;;4.05;66.06;99554.34;1718393;81;25792;-76
2022/04/02 10:53:39;;;;;;;5.35;4.03;;;;;;;4.02;65.45;99545.39;1725721;81;25983;-77
2022/04/02 10:56:16;;;;;;;8.58;4.90;;;;;;;4.01;65.78;99553.52;1716599;81;28280;-77
2022/04/02 10:58:48;;;;;;;5.50;4.37;;;;;;;4.03;67.34;99547.06;1715233;82;26561;-76
2022/04/02 11:01:22;;;;;;;11.90;5.40;;;;;;;4.09;66.63;99550.35;1718628;82;25861;-77
2022/04/02 11:03:56;;;;;;;11.78;5.65;;;;;;;4.06;64.98;99551.20;1712707;82;25918;-77
2022/04/02 11:06:49;;;;;;;6.33;4.12;;;;;;;4.03;66.48;99549.72;1712640;82;25906;-77
2022/04/02 11:09:36;;;;;;;8.10;4.83;;;;;;;4.00;66.03;99546.06;1710344;82;28262;-77
2022/04/02 11:12:11;;;;;;;7.45;5.35;;;;;;;3.98;65.82;99563.95;1707349;82;25756;-77
2022/04/02 11:14:52;;;;;;;9.08;5.58;;;;;;;3.95;65.97;99552.39;1703493;82;37356;-77
2022/04/02 11:17:39;;;;;;;12.47;5.10;;;;;;;4.14;66.14;99555.14;1713831;82;26829;-77
2022/04/02 11:20:17;;;;;;;10.88;5.20;;;;;;;4.03;66.25;99565.61;1716452;81;25953;-77
2022/04/02 11:22:55;;;;;;;6.90;4.95;;;;;;;3.95;67.01;99559.51;1679695;83;27466;-77
2022/04/02 11:25:35;;;;;;;8.08;5.28;;;;;;;3.92;67.47;99555.38;1693503;83;26333;-77
2022/04/02 11:28:21;;;;;;;8.73;5.33;;;;;;;3.89;67.36;99553.08;1712195;82;26431;-77
2022/04/02 11:31:04;;;;;;;9.53;5.35;;;;;;;3.88;67.70;99553.56;1699668;83;26490;-77
2022/04/02 11:33:32;;;;;;;8.15;4.55;;;;;;;3.90;67.65;99553.39;1716562;82;25963;-76
2022/04/02 11:36:05;;;;;;;9.38;4.83;;;;;;;3.92;67.36;99552.72;1728977;82;28829;-77
2022/04/02 11:38:38;;;;;;;13.28;5.15;;;;;;;3.93;67.47;99559.16;1711209;82;25786;-77
2022/04/02 11:41:28;;;;;;;11.57;5.90;;;;;;;3.96;67.64;99561.17;1674206;84;25916;-76
2022/04/02 11:44:11;;;;;;;8.83;5.50;;;;;;;3.98;67.99;99552.03;1705552;82;26360;-76
2022/04/02 11:47:01;;;;;;;9.40;5.08;;;;;;;4.04;67.17;99552.70;1698867;83;25975;-77
2022/04/02 11:49:38;;;;;;;9.68;5.40;;;;;;;4.11;67.96;99551.50;1715810;82;28305;-77
2022/04/02 11:52:13;;;;;;;9.50;5.62;;;;;;;4.20;68.12;99551.80;1690454;84;25973;-76
2022/04/02 11:54:54;;;;;;;8.15;5.30;;;;;;;4.25;67.44;99548.98;1703147;83;25763;-77
2022/04/02 11:57:22;;;;;;;10.35;5.17;;;;;;;4.28;67.84;99547.78;1725127;82;26279;-77
2022/04/02 11:59:55;;;;;;;11.08;5.90;;;;;;;4.32;67.59;99547.80;1729494;82;25745;-77
2022/04/02 12:02:42;;;;;;;9.23;6.17;;;;;;;4.37;68.26;99547.59;1705591;82;27459;-77
2022/04/02 12:05:11;;;;;;;8.68;5.70;;;;;;;4.43;68.33;99546.06;1711100;82;26379;-77
2022/04/02 12:07:46;;;;;;;9.95;5.47;;;;;;;4.49;68.04;99549.38;1715026;81;25854;-77